CA-0021 weather

CLOSED Amber Tower Airport
Alberta, Canada

Public forecast

Using degrees Celsius for public forecast. Weather courtesy of forecast.io.

Closest aviation weather report (METAR) to Amber Tower Airport

Closest report is High Level Airport, 78.9 nm (146.1 km) ESE. Retrieved 2019/10/17 07:20 UTC (0 seconds ago):

CYOJ 170720Z AUTO 02003KT 1SM BR OVC003 02/02 A2940 RMK SLP974

Closest aviation forecast (TAF) to Amber Tower Airport

Closest forecast is High Level Airport, 78.9 nm (146.1 km) ESE. Retrieved 2019/10/17 07:42 UTC (0 seconds ago):

TAF CYOJ 170638Z 1707/1719 VRB03KT P6SM OVC005 TEMPO 1707/1710 2SM BR FM171000 VRB03KT P6SM SCT008 OVC030 TEMPO 1710/1715 5SM -RA BR OVC008 FM171500 10005KT P6SM -RA OVC010 TEMPO 1715/1719 2SM -SHRA BR OVC006 RMK FCST BASED ON AUTO OBS NXT FCST BY 171300Z